Time;durP1;ratioP1;P1;durP2;ratioP2;P2;SDS_P1;SDS_P2;PMS_P1;PMS_P2;Temp;Humidity;BMP_temperature;BMP_pressure;BME280_temperature;BME280_humidity;BME280_pressure;Samples;Min_cycle;Max_cycle;Signal;HPM_P1;HPM_P2
2024/04/27 00:00:05;;;;;;;11.70;7.97;;;11.60;99.90;;;;;;4490252;26;20343;-62
2024/04/27 00:02:06;;;;;;;13.10;8.45;;;11.60;99.90;;;;;;4513089;26;20014;-62
2024/04/27 00:04:07;;;;;;;13.40;8.13;;;11.60;99.90;;;;;;4508356;26;20013;-62
2024/04/27 00:06:08;;;;;;;14.20;8.52;;;11.60;99.90;;;;;;4487841;26;20384;-62
2024/04/27 00:08:08;;;;;;;14.65;8.77;;;11.50;99.90;;;;;;4501186;26;20021;-62
2024/04/27 00:10:09;;;;;;;13.38;8.85;;;11.50;99.90;;;;;;4502064;26;20018;-63
2024/04/27 00:12:10;;;;;;;14.38;9.00;;;11.50;99.90;;;;;;4504020;26;20015;-62
2024/04/27 00:14:14;;;;;;;14.80;9.07;;;11.50;99.90;;;;;;4503232;26;20011;-62
2024/04/27 00:16:15;;;;;;;18.50;10.05;;;11.40;99.90;;;;;;4499057;26;20006;-63
2024/04/27 00:18:15;;;;;;;16.40;9.77;;;11.40;99.90;;;;;;4501478;26;20007;-63
2024/04/27 00:20:16;;;;;;;19.23;11.13;;;11.30;99.90;;;;;;4500445;26;20343;-63
2024/04/27 00:22:17;;;;;;;14.43;9.63;;;11.30;99.90;;;;;;4508912;26;20002;-62
2024/04/27 00:24:18;;;;;;;14.98;9.48;;;11.20;99.90;;;;;;4452557;26;20061;-63
2024/04/27 00:26:19;;;;;;;11.38;7.57;;;11.20;99.90;;;;;;4501270;26;20018;-62
2024/04/27 00:28:19;;;;;;;15.40;9.02;;;11.20;99.90;;;;;;4484362;26;20356;-63
2024/04/27 00:30:20;;;;;;;12.43;8.18;;;11.20;99.90;;;;;;4493616;26;20023;-62
2024/04/27 00:32:21;;;;;;;13.10;8.23;;;11.20;99.90;;;;;;4505705;26;20367;-63
2024/04/27 00:34:22;;;;;;;15.43;9.13;;;11.20;99.90;;;;;;4495159;26;20002;-62
2024/04/27 00:36:23;;;;;;;11.82;8.65;;;11.20;99.90;;;;;;4502625;26;20550;-62
2024/04/27 00:38:24;;;;;;;14.27;8.88;;;11.20;99.90;;;;;;4502805;26;20010;-63
2024/04/27 00:40:24;;;;;;;17.63;9.77;;;11.10;99.90;;;;;;4503867;26;20443;-65
2024/04/27 00:42:25;;;;;;;13.55;9.48;;;11.10;99.90;;;;;;4517384;26;20405;-64
2024/04/27 00:44:26;;;;;;;15.10;9.85;;;11.10;99.90;;;;;;4503481;26;20083;-64
2024/04/27 00:46:26;;;;;;;14.60;9.60;;;11.10;99.90;;;;;;4504614;26;20459;-64
2024/04/27 00:48:27;;;;;;;17.45;10.25;;;11.00;99.90;;;;;;4499760;26;20007;-64
2024/04/27 00:50:28;;;;;;;15.85;9.88;;;11.00;99.90;;;;;;4503097;26;20409;-63
2024/04/27 00:52:28;;;;;;;17.30;9.55;;;11.00;99.90;;;;;;4476581;26;20019;-64
2024/04/27 00:54:30;;;;;;;18.48;10.60;;;11.00;99.90;;;;;;4510747;26;20014;-64
2024/04/27 00:56:31;;;;;;;13.93;9.87;;;11.00;99.90;;;;;;4507776;26;20022;-64
2024/04/27 00:58:31;;;;;;;16.63;10.55;;;10.90;99.90;;;;;;4501204;26;20787;-64
2024/04/27 01:00:32;;;;;;;18.35;10.93;;;10.90;99.90;;;;;;4510553;26;20015;-64
2024/04/27 01:02:33;;;;;;;16.70;10.52;;;10.90;99.90;;;;;;4502210;26;20019;-64
2024/04/27 01:04:34;;;;;;;17.90;11.13;;;10.90;99.90;;;;;;4508088;26;20022;-63
2024/04/27 01:06:34;;;;;;;14.18;9.82;;;10.80;99.90;;;;;;4506215;26;20083;-64
2024/04/27 01:08:35;;;;;;;15.18;9.90;;;10.80;99.90;;;;;;4503984;26;20038;-64
2024/04/27 01:10:40;;;;;;;14.25;9.70;;;10.80;99.90;;;;;;4510819;26;20382;-64
2024/04/27 01:12:40;;;;;;;18.48;11.05;;;10.80;99.90;;;;;;4502748;26;20018;-64
2024/04/27 01:14:41;;;;;;;14.18;10.25;;;10.70;99.90;;;;;;4508666;26;20010;-64
2024/04/27 01:16:42;;;;;;;15.35;10.25;;;10.70;99.90;;;;;;4508358;26;19999;-64
2024/04/27 01:18:42;;;;;;;16.70;10.95;;;10.70;99.90;;;;;;4504576;26;20113;-64
2024/04/27 01:20:43;;;;;;;14.93;9.70;;;10.70;99.90;;;;;;4508016;26;20026;-65
2024/04/27 01:22:44;;;;;;;15.38;10.02;;;10.70;99.90;;;;;;4503040;26;20003;-59
2024/04/27 01:24:45;;;;;;;14.02;9.70;;;10.70;99.90;;;;;;4513126;26;21559;-59
2024/04/27 01:26:46;;;;;;;15.43;10.18;;;10.70;99.90;;;;;;4505402;26;20011;-59
2024/04/27 01:28:47;;;;;;;12.80;8.60;;;10.70;99.90;;;;;;4467969;26;20026;-58
2024/04/27 01:30:48;;;;;;;15.27;10.05;;;10.70;99.90;;;;;;4481252;26;20016;-64
2024/04/27 01:32:48;;;;;;;17.98;11.60;;;10.70;99.90;;;;;;4513511;26;20006;-67
2024/04/27 01:34:49;;;;;;;17.90;9.95;;;10.70;99.90;;;;;;4485793;26;20008;-58
2024/04/27 01:36:50;;;;;;;17.67;9.60;;;10.60;99.90;;;;;;4478432;26;20010;-58
2024/04/27 01:38:50;;;;;;;17.45;10.18;;;10.60;99.90;;;;;;4500456;26;19995;-59
2024/04/27 01:40:51;;;;;;;16.35;10.25;;;10.60;99.90;;;;;;4503299;26;20009;-63
2024/04/27 01:42:52;;;;;;;15.18;10.07;;;10.60;99.90;;;;;;4507157;26;20053;-60
2024/04/27 01:44:53;;;;;;;13.70;9.75;;;10.60;99.90;;;;;;4512218;26;20003;-59
2024/04/27 01:46:56;;;;;;;15.18;10.43;;;10.60;99.90;;;;;;4503484;26;20018;-58
2024/04/27 01:48:57;;;;;;;13.98;9.20;;;10.60;99.90;;;;;;4499599;26;20017;-58
2024/04/27 01:50:58;;;;;;;15.35;8.60;;;10.60;99.90;;;;;;4507940;26;20007;-58
2024/04/27 01:52:58;;;;;;;13.88;8.55;;;10.50;99.90;;;;;;4477153;26;20412;-58
2024/04/27 01:54:59;;;;;;;13.27;9.27;;;10.50;99.90;;;;;;4503590;26;20053;-58
2024/04/27 01:57:00;;;;;;;16.88;9.45;;;10.60;99.90;;;;;;4501226;26;20413;-58
2024/04/27 01:59:01;;;;;;;15.35;9.32;;;10.50;99.90;;;;;;4475803;26;20014;-58
2024/04/27 02:01:02;;;;;;;16.77;9.88;;;10.50;99.90;;;;;;4502316;26;19999;-58
2024/04/27 02:03:03;;;;;;;15.98;9.52;;;10.50;99.90;;;;;;4489742;26;20007;-58
2024/04/27 02:05:04;;;;;;;17.83;10.25;;;10.50;99.90;;;;;;4498097;26;20006;-59
2024/04/27 02:07:05;;;;;;;15.18;9.40;;;10.50;99.90;;;;;;4500988;26;20007;-58
2024/04/27 02:09:06;;;;;;;14.73;9.40;;;10.40;99.90;;;;;;4489466;26;20011;-59
2024/04/27 02:11:11;;;;;;;16.42;10.52;;;10.50;99.90;;;;;;4503463;26;20368;-58
2024/04/27 02:13:12;;;;;;;15.38;9.30;;;10.40;99.90;;;;;;4498880;26;20109;-58
2024/04/27 02:15:17;;;;;;;14.27;9.25;;;10.40;99.90;;;;;;4496340;26;20007;-58
2024/04/27 02:19:38;;;;;;;14.10;8.98;;;10.40;99.90;;;;;;4496340;26;20026;-58
2024/04/27 02:21:46;;;;;;;14.05;9.05;;;10.50;99.90;;;;;;4502570;26;20091;-58
2024/04/27 02:23:47;;;;;;;12.85;8.60;;;10.40;99.90;;;;;;4504408;26;20467;-58
2024/04/27 02:25:47;;;;;;;15.77;9.38;;;10.40;99.90;;;;;;4513839;26;20001;-58
2024/04/27 02:27:48;;;;;;;16.48;9.32;;;10.40;99.90;;;;;;4495697;26;20524;-58
2024/04/27 02:29:51;;;;;;;13.63;8.85;;;10.40;99.90;;;;;;4495835;26;20008;-59
2024/04/27 02:31:53;;;;;;;15.88;9.02;;;10.40;99.90;;;;;;4494190;26;20059;-58
2024/04/27 02:33:55;;;;;;;13.10;9.37;;;10.40;99.90;;;;;;4475871;26;20099;-59
2024/04/27 02:35:55;;;;;;;12.45;8.15;;;10.40;99.90;;;;;;4492669;26;20033;-59
2024/04/27 02:37:57;;;;;;;11.38;7.97;;;10.40;99.90;;;;;;4470963;26;20413;-58
2024/04/27 02:39:57;;;;;;;14.27;8.88;;;10.40;99.90;;;;;;4473747;26;20011;-58
2024/04/27 02:41:58;;;;;;;14.75;9.48;;;10.40;99.90;;;;;;4453224;26;20004;-58
2024/04/27 02:43:59;;;;;;;14.43;8.23;;;10.30;99.90;;;;;;4509306;26;20479;-58
2024/04/27 02:46:00;;;;;;;13.23;8.77;;;10.30;99.90;;;;;;4501290;26;20006;-58
2024/04/27 02:48:01;;;;;;;11.68;7.88;;;10.30;99.90;;;;;;4504446;26;20463;-58
2024/04/27 02:50:02;;;;;;;11.75;7.65;;;10.30;99.90;;;;;;4506657;26;20034;-59
2024/04/27 02:52:03;;;;;;;13.88;8.15;;;10.30;99.90;;;;;;4498841;26;20022;-58
2024/04/27 02:54:04;;;;;;;11.88;7.72;;;10.30;99.90;;;;;;4511641;26;19998;-59
2024/04/27 02:56:05;;;;;;;13.07;7.25;;;10.30;99.90;;;;;;4502581;26;20029;-58
2024/04/27 02:58:08;;;;;;;11.50;7.40;;;10.20;99.90;;;;;;4504319;26;20466;-58
2024/04/27 03:00:10;;;;;;;12.60;7.78;;;10.20;99.90;;;;;;4502186;26;20007;-59
2024/04/27 03:02:11;;;;;;;11.30;7.15;;;10.20;99.90;;;;;;4504087;26;20025;-59
2024/04/27 03:04:12;;;;;;;10.93;7.07;;;10.20;99.90;;;;;;4506297;26;20003;-58
2024/04/27 03:06:13;;;;;;;11.18;6.63;;;10.20;99.90;;;;;;4505955;26;20450;-59
2024/04/27 03:08:14;;;;;;;8.93;6.50;;;10.20;99.90;;;;;;4504064;26;20003;-59
2024/04/27 03:10:15;;;;;;;10.35;6.68;;;10.20;99.90;;;;;;4513269;26;20011;-62
2024/04/27 03:12:15;;;;;;;11.20;6.50;;;10.20;99.90;;;;;;4497159;26;20003;-58
2024/04/27 03:14:16;;;;;;;11.45;7.53;;;10.10;99.90;;;;;;4487131;26;19998;-59
2024/04/27 03:16:18;;;;;;;10.50;6.78;;;10.10;99.90;;;;;;4454672;26;20008;-59
2024/04/27 03:18:19;;;;;;;11.32;6.93;;;10.10;99.90;;;;;;4504553;26;19999;-58
2024/04/27 03:20:20;;;;;;;9.90;6.57;;;10.10;99.90;;;;;;4462856;26;21618;-59
2024/04/27 03:22:21;;;;;;;9.60;6.30;;;10.10;99.90;;;;;;4509339;26;20076;-58
2024/04/27 03:24:22;;;;;;;7.97;6.07;;;10.10;99.90;;;;;;4501035;26;20007;-58
2024/04/27 03:26:23;;;;;;;9.85;5.80;;;10.00;99.90;;;;;;4502562;26;20007;-58
2024/04/27 03:28:24;;;;;;;9.20;5.38;;;10.10;99.90;;;;;;4504333;26;20015;-58
2024/04/27 03:30:25;;;;;;;9.05;6.05;;;10.00;99.90;;;;;;4504816;26;19998;-58
2024/04/27 03:32:25;;;;;;;10.30;6.25;;;10.00;99.90;;;;;;4496278;26;20003;-58
2024/04/27 03:34:26;;;;;;;8.27;5.57;;;10.00;99.90;;;;;;4509155;26;20474;-59
2024/04/27 03:36:28;;;;;;;10.27;5.93;;;10.00;99.90;;;;;;4500555;26;20403;-60
2024/04/27 03:38:30;;;;;;;11.45;6.72;;;9.90;99.90;;;;;;4504332;26;20010;-58
2024/04/27 03:40:30;;;;;;;8.80;5.30;;;9.90;99.90;;;;;;4503274;26;20142;-59
2024/04/27 03:42:31;;;;;;;9.25;5.40;;;9.90;99.90;;;;;;4501848;26;20478;-58
2024/04/27 03:44:33;;;;;;;7.75;5.10;;;9.90;99.90;;;;;;4478486;26;20000;-58
2024/04/27 03:46:34;;;;;;;7.80;5.22;;;9.80;99.90;;;;;;4448143;26;20008;-59
2024/04/27 03:48:35;;;;;;;7.35;4.88;;;9.80;99.90;;;;;;4502495;26;20444;-58
2024/04/27 03:50:35;;;;;;;7.47;4.68;;;9.90;99.90;;;;;;4505182;26;20087;-59
2024/04/27 03:52:36;;;;;;;9.13;5.05;;;9.90;99.90;;;;;;4496571;26;20003;-58
2024/04/27 03:54:37;;;;;;;7.18;4.55;;;9.80;99.90;;;;;;4508281;26;20003;-58
2024/04/27 03:56:41;;;;;;;7.40;4.60;;;9.90;99.90;;;;;;4502378;26;20026;-58
2024/04/27 03:58:44;;;;;;;5.53;3.95;;;9.90;99.90;;;;;;4508624;26;20030;-59
2024/04/27 04:00:45;;;;;;;7.63;5.03;;;9.80;99.90;;;;;;4509607;26;20021;-59
2024/04/27 04:02:45;;;;;;;6.15;4.45;;;9.80;99.90;;;;;;4508035;26;20351;-62
2024/04/27 04:04:46;;;;;;;6.30;4.07;;;9.80;99.90;;;;;;4507964;26;20006;-59
2024/04/27 04:06:46;;;;;;;7.65;4.65;;;9.90;99.90;;;;;;4506744;26;20473;-58
2024/04/27 04:08:47;;;;;;;10.52;5.03;;;9.80;99.90;;;;;;4510631;26;20033;-59
2024/04/27 04:10:50;;;;;;;6.65;4.18;;;9.80;99.90;;;;;;4518134;26;20433;-66
2024/04/27 04:12:51;;;;;;;6.18;3.83;;;9.80;99.90;;;;;;4516816;26;20026;-63
2024/04/27 04:14:51;;;;;;;6.07;3.72;;;9.80;99.90;;;;;;4507390;26;20003;-63
2024/04/27 04:16:52;;;;;;;5.82;3.75;;;9.80;99.90;;;;;;4503242;26;20305;-63
2024/04/27 04:18:53;;;;;;;7.18;4.32;;;9.80;99.90;;;;;;4512095;26;20446;-63
2024/04/27 04:20:53;;;;;;;6.00;4.35;;;9.80;99.90;;;;;;4452212;26;20507;-63
2024/04/27 04:22:58;;;;;;;5.65;4.05;;;9.70;99.90;;;;;;4489841;26;20052;-63
2024/04/27 04:24:59;;;;;;;6.35;4.00;;;9.70;99.90;;;;;;4505232;26;20025;-64
2024/04/27 04:26:59;;;;;;;8.20;3.75;;;9.70;99.90;;;;;;4482359;26;20003;-63
2024/04/27 04:29:02;;;;;;;6.63;4.05;;;9.70;99.90;;;;;;4505794;26;20336;-64
2024/04/27 04:31:03;;;;;;;6.07;3.50;;;9.70;99.90;;;;;;4492622;26;20015;-59
2024/04/27 04:33:04;;;;;;;7.20;4.10;;;9.70;99.90;;;;;;4507720;26;20006;-59
2024/04/27 04:35:05;;;;;;;6.20;3.80;;;9.70;99.90;;;;;;4508007;26;20041;-60
2024/04/27 04:37:05;;;;;;;5.60;3.42;;;9.70;99.90;;;;;;4509918;26;20023;-59
2024/04/27 04:39:06;;;;;;;5.47;3.40;;;9.80;99.90;;;;;;4504391;26;20014;-59
2024/04/27 04:41:06;;;;;;;6.13;3.55;;;9.80;99.90;;;;;;4488422;26;20447;-59
2024/04/27 04:43:07;;;;;;;5.18;3.53;;;9.70;99.90;;;;;;4506129;26;20007;-59
2024/04/27 04:45:08;;;;;;;5.80;3.85;;;9.80;99.90;;;;;;4505906;26;20017;-60
2024/04/27 04:47:08;;;;;;;6.55;3.30;;;9.80;99.90;;;;;;4501229;26;20404;-59
2024/04/27 04:49:09;;;;;;;4.55;3.42;;;9.70;99.90;;;;;;4503105;26;20044;-60
2024/04/27 04:51:13;;;;;;;4.65;3.45;;;9.80;99.90;;;;;;4502271;26;20443;-59
2024/04/27 04:53:14;;;;;;;6.90;3.33;;;9.80;99.90;;;;;;4493364;26;20002;-59
2024/04/27 04:55:15;;;;;;;5.65;3.30;;;9.80;99.90;;;;;;4508589;26;20025;-59
2024/04/27 04:57:15;;;;;;;8.52;3.30;;;9.80;99.90;;;;;;4512160;26;20013;-64
2024/04/27 04:59:16;;;;;;;4.50;2.80;;;9.80;99.90;;;;;;4510783;26;20478;-60
2024/04/27 05:01:17;;;;;;;4.13;3.17;;;9.90;99.90;;;;;;4504231;26;20010;-59
2024/04/27 05:03:17;;;;;;;4.32;3.10;;;9.80;99.90;;;;;;4488029;26;20463;-59
2024/04/27 05:05:18;;;;;;;4.80;3.17;;;9.80;99.90;;;;;;4508278;26;20003;-59
2024/04/27 05:07:19;;;;;;;6.85;3.33;;;9.80;99.90;;;;;;4500170;26;20003;-59
2024/04/27 05:09:20;;;;;;;7.53;3.28;;;9.80;99.90;;;;;;4481695;26;20015;-59
2024/04/27 05:11:20;;;;;;;6.13;2.88;;;9.80;99.90;;;;;;4511658;26;20003;-59
2024/04/27 05:13:21;;;;;;;6.50;3.55;;;9.80;99.90;;;;;;4456720;26;20036;-59
2024/04/27 05:15:22;;;;;;;3.65;2.67;;;9.90;99.90;;;;;;4503762;26;20080;-59
2024/04/27 05:17:22;;;;;;;5.63;2.70;;;9.90;99.90;;;;;;4501376;26;19998;-59
2024/04/27 05:19:23;;;;;;;6.57;3.00;;;9.90;99.90;;;;;;4502128;26;20438;-59
2024/04/27 05:21:23;;;;;;;5.28;3.17;;;9.90;99.90;;;;;;4509058;26;20078;-59
2024/04/27 05:23:24;;;;;;;4.80;3.03;;;10.00;99.90;;;;;;4503097;26;20013;-59
2024/04/27 05:25:25;;;;;;;4.70;2.92;;;10.00;99.90;;;;;;4487921;26;19998;-58
2024/04/27 05:27:26;;;;;;;3.97;3.08;;;10.00;99.90;;;;;;4482982;26;20003;-58
2024/04/27 05:29:26;;;;;;;6.20;3.20;;;10.00;99.90;;;;;;4505154;26;20045;-59
2024/04/27 05:31:27;;;;;;;4.68;2.80;;;10.00;99.90;;;;;;4502434;26;20018;-59
2024/04/27 05:33:27;;;;;;;4.88;2.85;;;10.10;99.90;;;;;;4496862;26;20035;-58
2024/04/27 05:35:28;;;;;;;4.75;2.65;;;10.10;99.90;;;;;;4504925;26;20606;-58
2024/04/27 05:37:28;;;;;;;5.40;2.92;;;10.10;99.90;;;;;;4473703;26;20014;-58
2024/04/27 05:39:29;;;;;;;5.90;3.55;;;10.10;99.90;;;;;;4491613;26;20025;-58
2024/04/27 05:41:29;;;;;;;3.40;2.55;;;10.20;99.90;;;;;;4503138;26;20079;-59
2024/04/27 05:43:30;;;;;;;6.25;2.58;;;10.30;99.90;;;;;;4505070;26;20369;-59
2024/04/27 05:45:31;;;;;;;4.88;2.75;;;10.30;99.90;;;;;;4501897;26;20006;-58
2024/04/27 05:47:31;;;;;;;5.25;2.95;;;10.30;99.90;;;;;;4505318;26;20050;-58
2024/04/27 05:49:32;;;;;;;4.60;2.45;;;10.30;99.90;;;;;;4507406;26;20004;-58
2024/04/27 05:51:32;;;;;;;3.30;2.50;;;10.40;99.90;;;;;;4478312;26;20015;-58
2024/04/27 05:53:33;;;;;;;4.43;2.70;;;10.40;99.90;;;;;;4507482;26;20404;-59
2024/04/27 05:55:35;;;;;;;6.55;2.92;;;10.40;99.90;;;;;;4506232;26;20013;-58
2024/04/27 05:57:35;;;;;;;4.60;2.65;;;10.40;99.90;;;;;;4506360;26;20440;-58
2024/04/27 05:59:36;;;;;;;5.65;2.63;;;10.50;99.90;;;;;;4508396;26;20007;-58
2024/04/27 06:01:36;;;;;;;3.47;2.40;;;10.50;99.90;;;;;;4501009;26;20026;-63
2024/04/27 06:03:37;;;;;;;3.70;2.85;;;10.50;99.90;;;;;;4507088;26;20013;-60
2024/04/27 06:05:37;;;;;;;4.55;2.40;;;10.50;99.90;;;;;;4509640;26;20081;-59
2024/04/27 06:07:38;;;;;;;6.15;3.13;;;10.60;99.90;;;;;;4474661;26;21474;-58
2024/04/27 06:09:39;;;;;;;5.15;3.05;;;10.60;99.90;;;;;;4503942;26;20007;-58
2024/04/27 06:11:40;;;;;;;5.03;2.42;;;10.60;99.90;;;;;;4499387;26;20016;-58
2024/04/27 06:13:40;;;;;;;4.55;2.63;;;10.60;99.90;;;;;;4503650;26;20002;-58
2024/04/27 06:15:41;;;;;;;2.90;2.38;;;10.60;99.90;;;;;;4503315;26;20327;-58
2024/04/27 06:17:42;;;;;;;3.85;2.47;;;10.70;99.90;;;;;;4503807;26;20054;-59
2024/04/27 06:19:42;;;;;;;3.53;2.75;;;10.70;99.90;;;;;;4485452;26;20017;-58
2024/04/27 06:21:43;;;;;;;4.28;2.30;;;10.70;99.90;;;;;;4505179;26;20007;-58
2024/04/27 06:23:45;;;;;;;6.40;2.60;;;10.70;99.90;;;;;;4509013;26;19998;-58
2024/04/27 06:25:45;;;;;;;3.03;2.40;;;10.70;99.90;;;;;;4501444;26;20022;-58
2024/04/27 06:27:46;;;;;;;5.15;2.33;;;10.80;99.90;;;;;;4504921;26;20496;-59
2024/04/27 06:29:47;;;;;;;9.52;2.45;;;10.80;99.90;;;;;;4458990;26;20020;-58
2024/04/27 06:31:47;;;;;;;4.80;2.70;;;10.80;99.90;;;;;;4500841;26;20011;-61
2024/04/27 06:33:48;;;;;;;4.80;2.60;;;10.90;99.90;;;;;;4480101;26;20022;-59
2024/04/27 06:35:48;;;;;;;3.90;2.25;;;10.90;99.90;;;;;;4479767;26;20000;-59
2024/04/27 06:37:49;;;;;;;4.25;2.55;;;10.90;99.90;;;;;;4509003;26;20026;-58
2024/04/27 06:39:50;;;;;;;3.55;2.38;;;10.90;99.90;;;;;;4509779;26;20022;-58
2024/04/27 06:41:51;;;;;;;3.45;2.47;;;11.00;99.90;;;;;;4508120;26;20524;-59
2024/04/27 06:43:51;;;;;;;4.05;2.45;;;11.00;99.90;;;;;;4506503;26;20439;-59
2024/04/27 06:45:52;;;;;;;4.85;2.45;;;11.10;99.90;;;;;;4504231;26;20021;-59
2024/04/27 06:47:53;;;;;;;3.17;2.38;;;11.10;99.90;;;;;;4474381;26;20487;-59
2024/04/27 06:49:53;;;;;;;5.03;2.60;;;11.20;99.90;;;;;;4503170;26;20014;-59
2024/04/27 06:51:57;;;;;;;2.83;2.25;;;11.30;99.90;;;;;;4507362;26;20336;-59
2024/04/27 06:53:58;;;;;;;4.43;2.38;;;11.30;99.90;;;;;;4478950;26;20059;-60
2024/04/27 06:55:58;;;;;;;5.43;2.60;;;11.40;99.90;;;;;;4502726;26;20003;-60
2024/04/27 06:57:59;;;;;;;2.65;2.30;;;11.40;99.90;;;;;;4501406;26;20010;-59
2024/04/27 07:00:00;;;;;;;3.25;2.20;;;11.40;99.90;;;;;;4510574;26;20481;-59
2024/04/27 07:02:00;;;;;;;4.40;2.47;;;11.50;99.90;;;;;;4469032;26;20007;-60
2024/04/27 07:04:01;;;;;;;3.60;2.60;;;11.50;99.90;;;;;;4509013;26;20011;-60
2024/04/27 07:06:02;;;;;;;3.30;2.17;;;11.60;99.90;;;;;;4507303;26;20030;-60
2024/04/27 07:08:02;;;;;;;4.55;2.40;;;11.60;99.90;;;;;;4493695;26;20201;-59
2024/04/27 07:10:03;;;;;;;4.20;2.22;;;11.70;99.90;;;;;;4495414;26;20351;-59
2024/04/27 07:12:06;;;;;;;3.97;2.10;;;11.70;99.90;;;;;;4503312;26;20026;-59
2024/04/27 07:14:07;;;;;;;3.10;2.45;;;11.80;99.90;;;;;;4496257;26;19994;-59
2024/04/27 07:16:07;;;;;;;2.70;2.10;;;11.90;99.90;;;;;;4501445;26;20025;-60
2024/04/27 07:18:08;;;;;;;2.40;1.83;;;12.00;99.90;;;;;;4498058;26;20022;-63
2024/04/27 07:20:08;;;;;;;4.38;2.33;;;12.10;99.90;;;;;;4498465;26;20025;-61
2024/04/27 07:22:09;;;;;;;3.33;2.08;;;12.20;99.90;;;;;;4499444;26;20003;-60
2024/04/27 07:24:10;;;;;;;6.68;2.47;;;12.40;99.90;;;;;;4488276;26;20096;-60
2024/04/27 07:26:10;;;;;;;4.88;2.00;;;12.50;99.90;;;;;;4504907;26;20347;-60
2024/04/27 07:28:11;;;;;;;2.95;2.38;;;12.50;99.90;;;;;;4502145;26;20018;-59
2024/04/27 07:30:12;;;;;;;5.25;2.17;;;12.60;99.90;;;;;;4497855;26;20046;-61
2024/04/27 07:32:13;;;;;;;6.85;2.70;;;12.60;99.90;;;;;;4504800;26;20447;-60
2024/04/27 07:34:14;;;;;;;3.30;2.08;;;12.60;99.90;;;;;;4517328;26;20010;-59
2024/04/27 07:36:16;;;;;;;5.25;2.65;;;12.60;99.90;;;;;;4500329;26;20583;-60
2024/04/27 07:38:16;;;;;;;3.63;2.25;;;12.50;99.90;;;;;;4495636;26;20076;-60
2024/04/27 07:40:17;;;;;;;3.28;2.13;;;12.40;99.90;;;;;;4503012;26;20725;-59
2024/04/27 07:42:17;;;;;;;6.32;2.58;;;12.50;99.90;;;;;;4511068;26;20007;-59
2024/04/27 07:44:18;;;;;;;3.30;2.25;;;12.40;99.90;;;;;;4503226;26;19999;-62
2024/04/27 07:46:19;;;;;;;3.92;2.55;;;12.40;99.90;;;;;;4478998;26;20018;-60
2024/04/27 07:48:19;;;;;;;3.50;2.40;;;12.30;99.90;;;;;;4504100;26;20022;-60
2024/04/27 07:50:20;;;;;;;3.80;2.60;;;12.30;99.90;;;;;;4502939;26;20455;-60
2024/04/27 07:52:20;;;;;;;5.65;2.90;;;12.30;99.90;;;;;;4474189;26;20084;-60
2024/04/27 07:54:21;;;;;;;5.00;2.50;;;12.30;99.90;;;;;;4500476;26;20014;-59
2024/04/27 07:56:22;;;;;;;3.53;2.20;;;12.20;99.90;;;;;;4502417;26;20343;-59
2024/04/27 07:58:23;;;;;;;2.92;2.25;;;12.20;99.90;;;;;;4482866;26;20023;-60
2024/04/27 08:00:24;;;;;;;2.72;2.03;;;12.20;99.90;;;;;;4501879;26;20003;-60
2024/04/27 08:02:24;;;;;;;2.67;2.28;;;12.20;99.90;;;;;;4504101;26;20003;-59
2024/04/27 08:04:25;;;;;;;4.70;2.38;;;12.20;99.90;;;;;;4504667;26;20447;-59
2024/04/27 08:06:26;;;;;;;6.60;2.80;;;12.20;99.90;;;;;;4504856;26;20014;-59
2024/04/27 08:08:27;;;;;;;4.93;2.50;;;12.20;99.90;;;;;;4498479;26;20002;-60
2024/04/27 08:10:27;;;;;;;5.38;2.50;;;12.10;99.90;;;;;;4477521;26;20573;-60
2024/04/27 08:12:30;;;;;;;3.00;2.15;;;12.20;99.90;;;;;;4513330;26;20013;-60
2024/04/27 08:14:31;;;;;;;4.07;2.70;;;12.20;99.90;;;;;;4487020;26;20006;-60
2024/04/27 08:16:31;;;;;;;4.10;2.38;;;12.20;99.90;;;;;;4513975;26;20021;-60
2024/04/27 08:18:32;;;;;;;3.78;2.78;;;12.20;99.90;;;;;;4514264;26;20379;-60
2024/04/27 08:20:33;;;;;;;5.97;2.85;;;12.10;99.90;;;;;;4509281;26;20006;-61
2024/04/27 08:22:33;;;;;;;4.88;2.60;;;12.10;99.90;;;;;;4509418;26;20003;-61
2024/04/27 08:24:34;;;;;;;3.92;2.70;;;12.20;99.90;;;;;;4508851;26;19999;-61
2024/04/27 08:26:34;;;;;;;4.03;3.00;;;12.20;99.90;;;;;;4498735;26;20038;-60
2024/04/27 08:28:35;;;;;;;7.05;2.85;;;12.20;99.90;;;;;;4501142;26;20022;-60
2024/04/27 08:30:35;;;;;;;3.67;2.35;;;12.20;99.90;;;;;;4501180;26;20003;-60
2024/04/27 08:32:36;;;;;;;4.10;2.30;;;12.20;99.90;;;;;;4500951;26;20017;-61
2024/04/27 08:34:37;;;;;;;5.68;2.47;;;12.30;99.90;;;;;;4507382;26;20003;-60
2024/04/27 08:36:38;;;;;;;4.15;2.83;;;12.40;99.90;;;;;;4495432;26;20489;-60
2024/04/27 08:38:43;;;;;;;4.55;2.80;;;12.40;99.90;;;;;;4503127;26;20769;-60
2024/04/27 08:40:46;;;;;;;5.22;3.15;;;12.40;99.90;;;;;;4468123;26;20455;-61
2024/04/27 08:42:47;;;;;;;5.00;2.50;;;12.40;99.90;;;;;;4497675;26;20035;-61
2024/04/27 08:44:52;;;;;;;4.28;2.15;;;12.50;99.90;;;;;;4503758;26;20007;-60
2024/04/27 08:46:55;;;;;;;4.25;2.58;;;12.60;99.90;;;;;;4502148;26;20007;-61
2024/04/27 08:48:59;;;;;;;4.82;2.63;;;12.60;99.90;;;;;;4497286;26;20018;-60
2024/04/27 08:50:59;;;;;;;4.25;2.70;;;12.60;99.90;;;;;;4499535;26;20015;-71
2024/04/27 08:53:00;;;;;;;3.20;2.30;;;12.70;99.90;;;;;;4506361;26;20025;-60
2024/04/27 08:55:01;;;;;;;6.22;2.50;;;12.80;99.90;;;;;;4503746;26;20007;-60
2024/04/27 08:57:02;;;;;;;3.90;2.88;;;12.90;99.90;;;;;;4485520;26;20162;-60
2024/04/27 08:59:05;;;;;;;6.18;2.92;;;12.90;99.90;;;;;;4475591;26;20510;-60
2024/04/27 09:01:06;;;;;;;3.30;2.40;;;13.10;99.90;;;;;;4505230;26;20144;-60
2024/04/27 09:03:07;;;;;;;4.05;2.40;;;13.10;99.90;;;;;;4518242;26;20006;-60
2024/04/27 09:05:08;;;;;;;3.03;1.85;;;13.20;99.90;;;;;;4502149;26;20512;-62
2024/04/27 09:07:09;;;;;;;5.15;2.30;;;13.30;99.90;;;;;;4472022;26;20020;-60
2024/04/27 09:09:09;;;;;;;2.95;2.35;;;13.40;99.90;;;;;;4507757;26;20624;-60
2024/04/27 09:11:10;;;;;;;3.38;2.22;;;13.50;99.90;;;;;;4478539;26;20016;-60
2024/04/27 09:13:12;;;;;;;8.68;2.45;;;13.60;99.90;;;;;;4486378;26;20033;-60
2024/04/27 09:15:12;;;;;;;5.00;2.50;;;13.60;99.90;;;;;;4503559;26;20015;-60
2024/04/27 09:17:13;;;;;;;3.65;2.08;;;13.60;99.90;;;;;;4486056;26;20474;-60
2024/04/27 09:19:14;;;;;;;2.63;2.15;;;13.60;99.90;;;;;;4470690;26;20380;-60
2024/04/27 09:21:14;;;;;;;3.20;2.38;;;13.70;99.90;;;;;;4496158;26;20007;-60
2024/04/27 09:23:16;;;;;;;2.17;1.95;;;13.70;99.90;;;;;;4513127;26;20014;-60
2024/04/27 09:25:18;;;;;;;3.33;2.30;;;13.70;99.90;;;;;;4458747;26;20004;-60
2024/04/27 09:27:24;;;;;;;4.32;2.40;;;13.70;99.90;;;;;;4469199;26;20018;-60
2024/04/27 09:29:24;;;;;;;4.47;2.22;;;13.90;99.90;;;;;;4505115;26;20083;-60
2024/04/27 09:31:25;;;;;;;2.30;1.80;;;13.90;99.90;;;;;;4505035;26;20050;-60
2024/04/27 09:33:25;;;;;;;2.33;1.83;;;14.00;99.90;;;;;;4511661;26;20040;-60
2024/04/27 09:35:26;;;;;;;4.32;2.25;;;14.10;99.90;;;;;;4500908;26;20011;-59
2024/04/27 09:37:32;;;;;;;3.13;2.28;;;14.20;99.90;;;;;;4502404;26;20009;-59
2024/04/27 09:39:34;;;;;;;4.18;1.83;;;14.30;99.90;;;;;;4485034;26;20083;-59
2024/04/27 09:41:40;;;;;;;5.15;2.30;;;14.40;99.90;;;;;;4507521;26;20011;-59
2024/04/27 09:43:53;;;;;;;3.22;2.03;;;14.50;99.90;;;;;;4516304;26;20269;-59
2024/04/27 09:45:58;;;;;;;;;;;14.50;99.90;;;;;;4505509;26;20398;-59
2024/04/27 09:48:04;;;;;;;6.10;1.85;;;14.60;99.90;;;;;;4508756;26;19933;-59
2024/04/27 09:50:12;;;;;;;2.72;1.88;;;14.60;99.90;;;;;;4507661;26;20447;-59
2024/04/27 09:52:16;;;;;;;2.65;1.92;;;14.70;99.90;;;;;;4489142;26;20034;-59
2024/04/27 09:54:17;;;;;;;3.03;2.20;;;14.80;99.90;;;;;;4513401;26;20003;-59
2024/04/27 09:56:18;;;;;;;2.90;1.80;;;14.80;99.90;;;;;;4504728;26;20006;-59
2024/04/27 09:58:19;;;;;;;3.97;1.63;;;14.80;99.90;;;;;;4512705;26;20011;-60
2024/04/27 10:00:20;;;;;;;4.32;1.70;;;14.80;99.90;;;;;;4506804;26;21758;-70
2024/04/27 10:02:22;;;;;;;2.22;1.60;;;14.80;99.90;;;;;;4506482;26;20010;-59
2024/04/27 10:04:31;;;;;;;2.05;1.50;;;14.80;99.90;;;;;;4519657;26;20013;-60
2024/04/27 10:06:33;;;;;;;1.70;1.50;;;14.80;99.90;;;;;;4512476;26;20451;-59
2024/04/27 10:08:37;;;;;;;3.20;1.80;;;14.90;99.90;;;;;;4509488;26;20038;-59
2024/04/27 10:10:37;;;;;;;5.35;2.38;;;14.90;99.90;;;;;;4508727;26;20444;-60
2024/04/27 10:12:38;;;;;;;2.45;1.70;;;14.90;99.90;;;;;;4508067;26;20014;-59
2024/04/27 10:14:39;;;;;;;3.95;2.15;;;15.00;99.90;;;;;;4509278;26;19999;-59
2024/04/27 10:16:40;;;;;;;3.15;1.50;;;14.90;99.90;;;;;;4508053;26;20025;-59
2024/04/27 10:18:41;;;;;;;2.47;1.60;;;14.90;99.90;;;;;;4508135;26;20007;-60
2024/04/27 10:20:43;;;;;;;3.35;1.70;;;14.90;99.90;;;;;;4457289;26;20020;-59
2024/04/27 10:22:43;;;;;;;3.25;1.60;;;14.90;99.90;;;;;;4515756;26;20362;-60
2024/04/27 10:24:44;;;;;;;3.67;2.03;;;14.80;99.90;;;;;;4498908;26;20003;-59
2024/04/27 10:26:46;;;;;;;2.72;1.70;;;14.90;99.90;;;;;;4506534;26;20003;-59
2024/04/27 10:28:46;;;;;;;3.38;1.75;;;14.90;99.90;;;;;;4505275;26;20079;-60
2024/04/27 10:30:47;;;;;;;3.13;2.00;;;14.80;99.90;;;;;;4512519;26;20007;-60